createdAt,value
2023-06-07T00:00:35.466Z,54.66
2023-06-07T00:02:43.662Z,54.49
2023-06-07T00:04:47.521Z,54.47
2023-06-07T00:06:50.244Z,54.31
2023-06-07T00:08:53.914Z,54.14
2023-06-07T00:10:56.638Z,54.40
2023-06-07T00:13:00.720Z,54.31
2023-06-07T00:15:03.460Z,54.04
2023-06-07T00:17:06.332Z,54.51
2023-06-07T00:19:09.399Z,54.61
2023-06-07T00:21:12.062Z,54.44
2023-06-07T00:23:15.375Z,53.95
2023-06-07T00:25:18.072Z,53.65
2023-06-07T00:27:21.109Z,53.56
2023-06-07T00:29:25.094Z,53.74
2023-06-07T00:31:27.870Z,53.72
2023-06-07T00:33:30.622Z,53.66
2023-06-07T00:35:33.282Z,53.79
2023-06-07T00:37:36.035Z,54.07
2023-06-07T00:39:38.631Z,54.42
2023-06-07T00:41:41.275Z,54.37
2023-06-07T00:43:45.678Z,54.59
2023-06-07T00:45:49.842Z,54.38
2023-06-07T00:47:52.741Z,54.57
2023-06-07T00:49:58.720Z,54.42
2023-06-07T00:52:01.619Z,54.40
2023-06-07T00:54:08.311Z,54.34
2023-06-07T00:56:11.305Z,54.24
2023-06-07T00:58:14.024Z,54.42
2023-06-07T01:00:17.133Z,54.60
2023-06-07T01:02:21.200Z,54.50
2023-06-07T01:04:25.272Z,54.76
2023-06-07T01:06:28.137Z,54.68
2023-06-07T01:08:31.163Z,54.70
2023-06-07T01:10:33.807Z,54.45
2023-06-07T01:12:37.319Z,54.57
2023-06-07T01:14:41.401Z,54.57
2023-06-07T01:16:49.709Z,54.56
2023-06-07T01:18:54.684Z,54.68
2023-06-07T01:20:59.760Z,55.07
2023-06-07T01:23:07.343Z,55.48
2023-06-07T01:25:11.805Z,55.45
2023-06-07T01:27:15.236Z,55.62
2023-06-07T01:29:18.129Z,55.76
2023-06-07T01:31:22.850Z,55.80
2023-06-07T01:33:26.418Z,55.97
2023-06-07T01:35:30.984Z,55.83
2023-06-07T01:37:34.280Z,55.92
2023-06-07T01:39:38.324Z,55.90
2023-06-07T01:41:43.743Z,56.17
2023-06-07T01:43:49.450Z,55.98
2023-06-07T01:45:54.016Z,56.24
2023-06-07T01:47:56.818Z,56.29
2023-06-07T01:49:59.517Z,56.31
2023-06-07T01:52:02.134Z,56.33
2023-06-07T01:54:06.351Z,56.43
2023-06-07T01:56:15.369Z,55.98
2023-06-07T01:58:27.486Z,55.76
2023-06-07T02:00:37.124Z,55.75
2023-06-07T02:06:06.176Z,55.57
2023-06-07T02:08:15.259Z,55.62
2023-06-07T02:10:22.254Z,55.34
2023-06-07T02:12:25.548Z,55.68
2023-06-07T02:14:30.715Z,56.12
2023-06-07T02:16:35.912Z,56.35
2023-06-07T02:18:42.012Z,56.27
2023-06-07T02:20:45.015Z,56.23
2023-06-07T02:22:50.720Z,56.24
2023-06-07T02:24:53.651Z,56.31
2023-06-07T02:26:56.862Z,56.35
2023-06-07T02:28:59.480Z,56.32
2023-06-07T02:31:04.219Z,56.01
2023-06-07T02:33:08.151Z,56.05
2023-06-07T02:35:11.044Z,56.14
2023-06-07T02:37:13.936Z,56.20
2023-06-07T02:39:17.129Z,56.44
2023-06-07T02:41:19.959Z,56.59
2023-06-07T02:43:22.568Z,56.45
2023-06-07T02:45:25.260Z,56.54
2023-06-07T02:47:29.357Z,56.79
2023-06-07T02:49:31.978Z,56.70
2023-06-07T02:51:34.626Z,56.83
2023-06-07T02:53:38.234Z,56.84
2023-06-07T02:55:43.387Z,56.95
2023-06-07T02:57:46.581Z,56.75
2023-06-07T02:59:49.408Z,56.69
2023-06-07T03:01:52.048Z,56.92
2023-06-07T03:03:56.395Z,56.99
2023-06-07T03:06:01.009Z,57.35
2023-06-07T03:08:03.823Z,57.17
2023-06-07T03:10:07.615Z,57.06
2023-06-07T03:12:11.411Z,57.25
2023-06-07T03:14:13.987Z,57.55
2023-06-07T03:16:17.247Z,57.86
2023-06-07T03:18:20.597Z,57.90
2023-06-07T03:20:24.593Z,57.69
2023-06-07T03:22:27.240Z,57.60
2023-06-07T03:24:30.142Z,57.64
2023-06-07T03:26:33.316Z,57.50
2023-06-07T03:28:36.017Z,57.52
2023-06-07T03:30:38.618Z,57.61
2023-06-07T03:32:41.380Z,57.66
2023-06-07T03:34:44.371Z,57.66
2023-06-07T03:36:48.866Z,57.69
2023-06-07T03:38:51.496Z,57.76
2023-06-07T03:40:54.102Z,57.56
2023-06-07T03:42:56.724Z,57.53
2023-06-07T03:44:59.325Z,57.40
2023-06-07T03:47:01.974Z,57.44
2023-06-07T03:49:04.724Z,57.33
2023-06-07T03:51:07.788Z,57.20
2023-06-07T03:53:12.105Z,57.32
2023-06-07T03:55:16.160Z,57.31
2023-06-07T03:57:19.137Z,57.48
2023-06-07T03:59:22.065Z,57.68
2023-06-07T04:01:26.819Z,57.53
2023-06-07T04:03:30.799Z,57.48
2023-06-07T04:05:39.673Z,57.54
2023-06-07T04:07:43.135Z,57.67
2023-06-07T04:09:47.215Z,58.20
2023-06-07T04:11:49.835Z,58.40
2023-06-07T04:13:52.431Z,58.75
2023-06-07T04:15:55.262Z,58.85
2023-06-07T04:17:57.911Z,58.83
2023-06-07T04:20:00.580Z,58.74
2023-06-07T04:22:05.759Z,58.84
2023-06-07T04:24:08.598Z,59.08
2023-06-07T04:26:12.640Z,59.06
2023-06-07T04:28:15.448Z,58.95
2023-06-07T04:30:19.228Z,58.46
2023-06-07T04:32:21.966Z,58.90
2023-06-07T04:34:25.229Z,58.59
2023-06-07T04:36:29.451Z,58.55
2023-06-07T04:38:33.348Z,58.67
2023-06-07T04:40:42.090Z,58.00
2023-06-07T04:42:56.769Z,58.00
2023-06-07T04:45:01.666Z,58.19
2023-06-07T04:47:09.886Z,58.49
2023-06-07T04:49:18.244Z,58.99
2023-06-07T04:51:21.865Z,59.07
2023-06-07T04:53:24.532Z,59.20
2023-06-07T04:55:29.385Z,59.39
2023-06-07T04:57:33.858Z,59.51
2023-06-07T04:59:43.521Z,59.73
2023-06-07T05:01:46.813Z,59.56
2023-06-07T05:03:53.680Z,59.44
2023-06-07T05:05:56.581Z,59.36
2023-06-07T05:07:59.645Z,59.52
2023-06-07T05:10:03.520Z,59.38
2023-06-07T05:12:07.481Z,59.13
2023-06-07T05:14:10.112Z,59.54
2023-06-07T05:16:17.428Z,59.38
2023-06-07T05:18:21.165Z,59.31
2023-06-07T05:20:25.997Z,59.11
2023-06-07T05:22:28.643Z,59.23
2023-06-07T05:24:31.258Z,59.10
2023-06-07T05:26:33.854Z,58.98
2023-06-07T05:28:36.563Z,58.60
2023-06-07T05:30:39.535Z,58.50
2023-06-07T05:32:43.794Z,58.07
2023-06-07T05:34:50.020Z,58.21
2023-06-07T05:36:52.806Z,58.44
2023-06-07T05:38:55.660Z,58.60
2023-06-07T05:40:58.309Z,58.75
2023-06-07T05:43:00.913Z,58.77
2023-06-07T05:45:03.574Z,58.62
2023-06-07T05:47:06.981Z,58.82
2023-06-07T05:49:11.144Z,58.80
2023-06-07T05:51:14.444Z,58.69
2023-06-07T05:53:18.754Z,58.55
2023-06-07T05:55:21.643Z,58.41
2023-06-07T05:57:24.584Z,58.43
2023-06-07T05:59:27.294Z,58.62
2023-06-07T06:01:30.336Z,58.58
2023-06-07T06:03:33.036Z,58.94
2023-06-07T06:05:37.053Z,58.88
2023-06-07T06:07:40.052Z,59.09
2023-06-07T06:09:43.165Z,59.14
2023-06-07T06:11:45.806Z,59.12
2023-06-07T06:13:49.650Z,59.00
2023-06-07T06:15:52.312Z,59.09
2023-06-07T06:17:55.573Z,59.02
2023-06-07T06:19:58.413Z,58.26
2023-06-07T06:22:02.528Z,58.42
2023-06-07T06:24:06.026Z,58.24
2023-06-07T06:26:08.654Z,58.13
2023-06-07T06:28:11.289Z,58.26
2023-06-07T06:30:14.450Z,58.42
2023-06-07T06:32:17.139Z,58.66
2023-06-07T06:34:19.962Z,58.84
2023-06-07T06:36:22.663Z,58.63
2023-06-07T06:38:26.920Z,58.54
2023-06-07T06:40:29.641Z,58.65
2023-06-07T06:42:32.297Z,58.48
2023-06-07T06:44:34.919Z,58.40
2023-06-07T06:46:37.833Z,58.46
2023-06-07T06:48:41.248Z,57.98
2023-06-07T06:50:45.652Z,58.13
2023-06-07T06:52:48.292Z,58.30
2023-06-07T06:54:52.278Z,58.50
2023-06-07T06:56:55.552Z,58.44
2023-06-07T06:58:58.169Z,58.55
2023-06-07T07:01:00.748Z,58.38
2023-06-07T07:03:03.662Z,58.64
2023-06-07T07:05:07.489Z,58.43
2023-06-07T07:07:10.122Z,58.74
2023-06-07T07:09:14.098Z,58.51
2023-06-07T07:11:18.061Z,58.46
2023-06-07T07:13:20.653Z,58.58
2023-06-07T07:15:24.405Z,58.33
2023-06-07T07:17:27.064Z,57.94
2023-06-07T07:19:29.671Z,57.97
2023-06-07T07:21:32.354Z,58.00
2023-06-07T07:23:34.974Z,57.86
2023-06-07T07:25:37.608Z,58.14
2023-06-07T07:27:41.597Z,57.63
2023-06-07T07:29:44.231Z,57.79
2023-06-07T07:31:48.652Z,57.58
2023-06-07T07:33:51.307Z,57.39
2023-06-07T07:35:54.571Z,57.54
2023-06-07T07:38:02.416Z,57.73
2023-06-07T07:40:07.046Z,57.73
2023-06-07T07:42:10.392Z,58.19
2023-06-07T07:44:16.852Z,58.48
2023-06-07T07:46:19.559Z,58.64
2023-06-07T07:48:22.409Z,58.62
2023-06-07T07:50:25.078Z,58.40
2023-06-07T07:52:27.686Z,58.30
2023-06-07T07:54:30.689Z,58.00
2023-06-07T07:56:33.282Z,57.91
2023-06-07T07:58:36.415Z,57.95
2023-06-07T08:00:41.784Z,58.13
2023-06-07T08:02:44.763Z,57.79
2023-06-07T08:04:47.577Z,57.81
2023-06-07T08:06:50.220Z,57.93
2023-06-07T08:08:52.981Z,57.51
2023-06-07T08:10:55.648Z,57.81
2023-06-07T08:12:58.284Z,57.71
2023-06-07T08:15:00.924Z,57.87
2023-06-07T08:17:05.523Z,57.60
2023-06-07T08:19:08.463Z,58.06
2023-06-07T08:21:12.996Z,58.23
2023-06-07T08:23:15.804Z,58.06
2023-06-07T08:25:18.626Z,57.74
2023-06-07T08:27:21.746Z,57.51
2023-06-07T08:29:24.369Z,57.62
2023-06-07T08:31:28.345Z,57.63
2023-06-07T08:33:32.492Z,57.75
2023-06-07T08:35:35.142Z,57.61
2023-06-07T08:37:37.737Z,57.54
2023-06-07T08:39:40.469Z,57.51
2023-06-07T08:41:43.158Z,57.51
2023-06-07T08:43:48.600Z,57.55
2023-06-07T08:45:53.936Z,57.33
2023-06-07T08:47:59.451Z,57.04
2023-06-07T08:50:04.748Z,56.42
2023-06-07T08:54:22.488Z,55.85
2023-06-07T08:56:28.567Z,56.18
2023-06-07T08:58:31.529Z,55.77
2023-06-07T09:00:34.183Z,55.13
2023-06-07T09:02:37.568Z,54.79
2023-06-07T09:04:41.499Z,54.44
2023-06-07T09:06:46.037Z,54.10
2023-06-07T09:08:48.765Z,53.73
2023-06-07T09:10:51.385Z,53.58
2023-06-07T09:12:54.008Z,53.99
2023-06-07T09:14:57.575Z,53.84
2023-06-07T09:17:01.754Z,53.71
2023-06-07T09:19:04.456Z,53.42
2023-06-07T09:21:20.752Z,53.70
2023-06-07T09:23:24.726Z,53.51
2023-06-07T09:25:28.508Z,53.07
2023-06-07T09:27:32.066Z,51.88
2023-06-07T09:29:41.436Z,51.83
2023-06-07T09:31:44.678Z,51.75
2023-06-07T09:33:47.567Z,52.07
2023-06-07T09:36:03.724Z,52.25
2023-06-07T09:38:07.778Z,51.68
2023-06-07T09:40:14.648Z,51.50
2023-06-07T09:42:18.291Z,51.19
2023-06-07T09:44:25.019Z,51.36
2023-06-07T09:46:37.824Z,51.45
2023-06-07T09:48:51.230Z,50.97
2023-06-07T09:50:57.369Z,50.87
2023-06-07T09:53:02.263Z,51.63
2023-06-07T09:55:07.796Z,51.84
2023-06-07T09:57:13.861Z,51.94
2023-06-07T09:59:17.805Z,52.12
2023-06-07T10:01:34.698Z,50.94
2023-06-07T10:03:48.078Z,50.16
2023-06-07T10:05:51.405Z,51.02
2023-06-07T10:07:58.962Z,51.51
2023-06-07T10:10:04.023Z,51.30
2023-06-07T10:12:09.926Z,50.55
2023-06-07T10:14:15.182Z,50.51
2023-06-07T10:16:20.001Z,49.02
2023-06-07T10:18:27.459Z,48.48
2023-06-07T10:20:32.075Z,48.17
2023-06-07T10:22:40.107Z,48.12
2023-06-07T10:24:53.047Z,48.36
2023-06-07T10:26:57.042Z,47.91
2023-06-07T10:29:08.004Z,47.32
2023-06-07T10:31:14.600Z,47.12
2023-06-07T10:33:18.201Z,45.99
2023-06-07T10:35:22.450Z,45.43
2023-06-07T10:37:25.822Z,45.39
2023-06-07T10:39:30.765Z,44.85
2023-06-07T10:41:34.392Z,42.26
2023-06-07T10:43:39.324Z,43.14
2023-06-07T10:45:42.230Z,44.03
2023-06-07T10:47:47.093Z,44.97
2023-06-07T10:49:50.434Z,45.19
2023-06-07T10:52:06.829Z,45.70
2023-06-07T10:54:09.788Z,46.16
2023-06-07T10:56:28.919Z,46.45
2023-06-07T10:58:31.951Z,45.15
2023-06-07T11:00:36.614Z,45.58
2023-06-07T11:02:39.519Z,46.07
2023-06-07T11:04:58.013Z,45.81
2023-06-07T11:07:22.157Z,47.23
2023-06-07T11:09:30.752Z,46.89
2023-06-07T11:11:45.394Z,45.78
2023-06-07T11:14:13.948Z,45.79
2023-06-07T11:16:43.924Z,46.66
2023-06-07T11:18:56.503Z,44.86
2023-06-07T11:21:00.629Z,44.43
2023-06-07T11:23:26.291Z,45.00
2023-06-07T11:25:29.318Z,41.67
2023-06-07T11:27:32.119Z,44.04
2023-06-07T11:29:37.401Z,44.78
2023-06-07T11:31:40.550Z,44.89
2023-06-07T11:33:43.726Z,44.97
2023-06-07T11:35:46.964Z,44.73
2023-06-07T11:37:50.912Z,44.55
2023-06-07T11:39:53.517Z,44.75
2023-06-07T11:41:56.290Z,44.69
2023-06-07T11:44:02.840Z,44.66
2023-06-07T11:46:05.887Z,44.84
2023-06-07T11:48:09.090Z,44.62
2023-06-07T11:50:11.858Z,43.65
2023-06-07T11:52:14.449Z,44.07
2023-06-07T11:54:20.805Z,44.46
2023-06-07T11:56:23.506Z,44.23
2023-06-07T11:58:26.825Z,42.47
2023-06-07T12:00:31.742Z,42.65
2023-06-07T12:02:41.050Z,42.16
2023-06-07T12:04:45.626Z,42.32
2023-06-07T12:06:49.834Z,41.90
2023-06-07T12:08:52.540Z,40.68
2023-06-07T12:10:57.265Z,40.03
2023-06-07T12:13:08.682Z,40.17
2023-06-07T12:15:11.873Z,41.52
2023-06-07T12:17:14.542Z,42.70
2023-06-07T12:19:17.160Z,43.92
2023-06-07T12:21:20.024Z,43.31
2023-06-07T12:23:22.797Z,43.53
2023-06-07T12:25:25.568Z,42.66
2023-06-07T12:27:31.667Z,41.97
2023-06-07T12:29:34.443Z,41.97
2023-06-07T12:31:41.352Z,41.93
2023-06-07T12:33:54.418Z,42.45
2023-06-07T12:35:58.949Z,41.51
2023-06-07T12:38:01.652Z,39.81
2023-06-07T12:40:05.683Z,38.44
2023-06-07T12:42:09.121Z,36.71
2023-06-07T12:44:13.685Z,34.48
2023-06-07T12:46:16.427Z,33.20
2023-06-07T12:48:19.066Z,32.34
2023-06-07T12:50:21.728Z,32.21
2023-06-07T12:52:24.421Z,31.30
2023-06-07T12:54:27.064Z,30.77
2023-06-07T12:56:30.519Z,30.85
2023-06-07T12:58:33.621Z,30.19
2023-06-07T13:00:37.846Z,29.05
2023-06-07T13:02:40.804Z,28.68
2023-06-07T13:04:43.460Z,29.90
2023-06-07T13:06:46.038Z,29.79
2023-06-07T13:08:48.675Z,31.33
2023-06-07T13:10:51.407Z,31.19
2023-06-07T13:12:54.325Z,30.31
2023-06-07T13:14:56.973Z,31.02
2023-06-07T13:17:01.395Z,30.69
2023-06-07T13:19:04.635Z,32.00
2023-06-07T13:21:07.232Z,30.42
2023-06-07T13:23:10.383Z,30.50
2023-06-07T13:25:13.467Z,31.68
2023-06-07T13:27:16.093Z,31.20
2023-06-07T13:29:19.550Z,32.32
2023-06-07T13:31:22.233Z,31.62
2023-06-07T13:33:26.241Z,34.05
2023-06-07T13:35:31.828Z,33.04
2023-06-07T13:37:36.436Z,32.63
2023-06-07T13:39:38.993Z,32.32
2023-06-07T13:41:42.662Z,32.90
2023-06-07T13:43:59.442Z,32.85
2023-06-07T13:46:06.578Z,32.72
2023-06-07T13:48:10.502Z,32.82
2023-06-07T13:50:14.597Z,32.18
2023-06-07T13:52:17.819Z,33.23
2023-06-07T13:54:20.487Z,33.35
2023-06-07T13:56:23.611Z,32.60
2023-06-07T13:58:26.429Z,32.67
2023-06-07T14:00:30.072Z,33.39
2023-06-07T14:02:32.936Z,33.76
2023-06-07T14:04:35.818Z,32.07
2023-06-07T14:06:40.083Z,33.12
2023-06-07T14:08:42.873Z,31.79
2023-06-07T14:10:46.024Z,33.68
2023-06-07T14:12:49.106Z,33.69
2023-06-07T14:14:51.841Z,32.40
2023-06-07T14:16:55.126Z,33.52
2023-06-07T14:18:58.011Z,32.53
2023-06-07T14:21:00.748Z,32.20
2023-06-07T14:23:05.991Z,32.79
2023-06-07T14:25:09.438Z,33.54
2023-06-07T14:27:13.018Z,32.81
2023-06-07T14:29:16.278Z,31.67
2023-06-07T14:31:21.860Z,30.86
2023-06-07T14:33:24.635Z,30.24
2023-06-07T14:35:27.265Z,31.57
2023-06-07T14:37:29.920Z,32.47
2023-06-07T14:39:33.895Z,31.26
2023-06-07T14:41:36.679Z,31.26
2023-06-07T14:43:39.357Z,31.27
2023-06-07T14:45:42.045Z,30.58
2023-06-07T14:47:44.718Z,30.19
2023-06-07T14:49:47.424Z,29.62
2023-06-07T14:51:50.360Z,29.55
2023-06-07T14:53:52.947Z,29.18
2023-06-07T14:55:57.171Z,30.56
2023-06-07T14:58:01.402Z,30.05
2023-06-07T15:00:06.859Z,29.89
2023-06-07T15:02:10.797Z,30.50
2023-06-07T15:04:13.519Z,30.90
2023-06-07T15:06:16.279Z,30.57
2023-06-07T15:08:18.894Z,31.20
2023-06-07T15:10:21.735Z,30.39
2023-06-07T15:12:25.891Z,29.66
2023-06-07T15:14:28.706Z,29.57
2023-06-07T15:16:31.592Z,30.57
2023-06-07T15:18:34.276Z,29.62
2023-06-07T15:20:37.153Z,30.09
2023-06-07T15:22:39.986Z,30.18
2023-06-07T15:24:44.607Z,30.50
2023-06-07T15:26:47.315Z,29.76
2023-06-07T15:28:51.280Z,29.56
2023-06-07T15:30:53.874Z,30.37
2023-06-07T15:32:56.523Z,30.66
2023-06-07T15:34:59.847Z,30.26
2023-06-07T15:37:02.508Z,29.04
2023-06-07T15:39:05.130Z,29.14
2023-06-07T15:41:09.515Z,30.83
2023-06-07T15:43:12.521Z,29.33
2023-06-07T15:45:16.916Z,29.94
2023-06-07T15:47:19.538Z,29.16
2023-06-07T15:49:22.125Z,29.69
2023-06-07T15:51:24.806Z,29.65
2023-06-07T15:53:27.425Z,30.53
2023-06-07T15:55:30.121Z,29.74
2023-06-07T15:57:32.720Z,29.72
2023-06-07T15:59:36.253Z,29.94
2023-06-07T16:01:41.033Z,30.03
2023-06-07T16:03:55.661Z,29.39
2023-06-07T16:05:59.237Z,30.20
2023-06-07T16:08:07.504Z,30.28
2023-06-07T16:10:15.951Z,30.39
2023-06-07T16:12:18.588Z,29.92
2023-06-07T16:14:21.221Z,29.63
2023-06-07T16:16:23.910Z,30.32
2023-06-07T16:18:27.885Z,30.50
2023-06-07T16:20:30.538Z,30.69
2023-06-07T16:22:33.208Z,30.56
2023-06-07T16:24:36.113Z,30.70
2023-06-07T16:26:38.737Z,30.11
2023-06-07T16:28:41.370Z,30.55
2023-06-07T16:30:44.012Z,30.98
2023-06-07T16:32:46.814Z,31.22
2023-06-07T16:34:50.779Z,30.96
2023-06-07T16:36:53.379Z,31.02
2023-06-07T16:38:56.023Z,31.13
2023-06-07T16:40:58.619Z,30.61
2023-06-07T16:43:01.182Z,30.64
2023-06-07T16:45:03.964Z,30.84
2023-06-07T16:47:07.059Z,31.16
2023-06-07T16:49:09.700Z,31.56
2023-06-07T16:51:13.776Z,31.85
2023-06-07T16:53:16.569Z,30.76
2023-06-07T16:55:19.183Z,31.68
2023-06-07T16:57:21.834Z,31.57
2023-06-07T16:59:25.980Z,31.64
2023-06-07T17:01:30.477Z,32.33
2023-06-07T17:03:33.324Z,32.47
2023-06-07T17:05:36.034Z,32.55
2023-06-07T17:07:39.972Z,32.92
2023-06-07T17:09:43.121Z,32.33
2023-06-07T17:11:45.804Z,32.93
2023-06-07T17:13:48.445Z,32.85
2023-06-07T17:15:51.602Z,32.64
2023-06-07T17:17:54.313Z,32.92
2023-06-07T17:19:56.954Z,33.31
2023-06-07T17:21:59.562Z,33.39
2023-06-07T17:24:03.544Z,33.43
2023-06-07T17:26:07.747Z,33.26
2023-06-07T17:28:10.426Z,33.49
2023-06-07T17:30:13.865Z,33.51
2023-06-07T17:32:16.582Z,34.11
2023-06-07T17:34:19.184Z,33.61
2023-06-07T17:36:22.644Z,34.16
2023-06-07T17:38:25.224Z,34.26
2023-06-07T17:40:29.194Z,34.56
2023-06-07T17:42:31.838Z,35.17
2023-06-07T17:44:37.710Z,35.43
2023-06-07T17:46:40.639Z,35.26
2023-06-07T17:48:43.334Z,34.87
2023-06-07T17:50:47.545Z,35.74
2023-06-07T17:52:50.701Z,35.52
2023-06-07T17:54:53.296Z,35.86
2023-06-07T17:56:57.260Z,35.56
2023-06-07T17:58:59.839Z,35.49
2023-06-07T18:01:02.566Z,35.84
2023-06-07T18:03:05.506Z,35.94
2023-06-07T18:05:08.429Z,36.41
2023-06-07T18:07:11.069Z,36.53
2023-06-07T18:09:13.725Z,36.84
2023-06-07T18:11:16.450Z,37.01
2023-06-07T18:13:20.605Z,37.19
2023-06-07T18:15:23.345Z,37.50
2023-06-07T18:17:26.065Z,37.19
2023-06-07T18:19:28.668Z,37.70
2023-06-07T18:21:31.295Z,37.31
2023-06-07T18:23:33.995Z,37.94
2023-06-07T18:25:36.725Z,37.60
2023-06-07T18:27:39.515Z,37.33
2023-06-07T18:29:43.515Z,37.74
2023-06-07T18:31:46.275Z,38.47
2023-06-07T18:33:49.036Z,38.60
2023-06-07T18:35:51.748Z,38.82
2023-06-07T18:37:54.403Z,38.91
2023-06-07T18:39:56.997Z,39.64
2023-06-07T18:41:59.611Z,40.21
2023-06-07T18:44:02.326Z,40.37
2023-06-07T18:46:06.535Z,40.96
2023-06-07T18:48:10.255Z,40.79
2023-06-07T18:50:13.018Z,41.21
2023-06-07T18:52:15.794Z,41.32
2023-06-07T18:54:18.364Z,41.81
2023-06-07T18:56:22.799Z,42.20
2023-06-07T18:58:25.586Z,42.46
2023-06-07T19:00:28.423Z,42.50
2023-06-07T19:02:32.515Z,42.10
2023-06-07T19:04:35.376Z,43.10
2023-06-07T19:06:37.987Z,43.04
2023-06-07T19:08:42.869Z,42.41
2023-06-07T19:10:45.522Z,43.27
2023-06-07T19:12:48.165Z,43.54
2023-06-07T19:14:50.791Z,43.38
2023-06-07T19:16:53.436Z,43.58
2023-06-07T19:18:57.450Z,43.70
2023-06-07T19:21:00.071Z,44.13
2023-06-07T19:23:02.676Z,44.53
2023-06-07T19:25:06.307Z,44.52
2023-06-07T19:27:09.388Z,44.09
2023-06-07T19:29:12.004Z,44.38
2023-06-07T19:31:14.823Z,44.76
2023-06-07T19:33:17.481Z,45.11
2023-06-07T19:35:21.481Z,44.61
2023-06-07T19:37:24.074Z,44.50
2023-06-07T19:39:26.660Z,44.48
2023-06-07T19:41:29.292Z,44.56
2023-06-07T19:43:31.884Z,44.98
2023-06-07T19:45:34.490Z,45.29
2023-06-07T19:47:37.608Z,45.75
2023-06-07T19:49:42.359Z,45.95
2023-06-07T19:51:46.404Z,45.93
2023-06-07T19:53:49.049Z,46.50
2023-06-07T19:55:51.792Z,46.19
2023-06-07T19:57:54.441Z,46.04
2023-06-07T19:59:57.017Z,45.91
2023-06-07T20:02:00.996Z,45.85
2023-06-07T20:04:03.765Z,46.11
2023-06-07T20:06:06.465Z,46.01
2023-06-07T20:08:11.609Z,46.15
2023-06-07T20:10:14.827Z,46.79
2023-06-07T20:12:17.579Z,46.96
2023-06-07T20:14:20.307Z,47.12
2023-06-07T20:16:23.129Z,46.18
2023-06-07T20:18:25.926Z,46.13
2023-06-07T20:20:28.530Z,46.09
2023-06-07T20:22:32.839Z,46.33
2023-06-07T20:24:36.787Z,46.47
2023-06-07T20:26:39.420Z,46.35
2023-06-07T20:28:42.028Z,46.69
2023-06-07T20:30:44.656Z,47.00
2023-06-07T20:32:47.684Z,47.28
2023-06-07T20:34:50.335Z,47.09
2023-06-07T20:36:52.965Z,46.62
2023-06-07T20:38:55.658Z,47.02
2023-06-07T20:40:59.627Z,46.82
2023-06-07T20:43:02.429Z,46.78
2023-06-07T20:45:05.658Z,47.04
2023-06-07T20:47:08.469Z,45.98
2023-06-07T20:49:11.274Z,45.58
2023-06-07T20:51:13.910Z,45.96
2023-06-07T20:53:16.512Z,46.26
2023-06-07T20:55:19.115Z,46.56
2023-06-07T20:57:23.073Z,46.79
2023-06-07T20:59:25.846Z,47.03
2023-06-07T21:01:28.548Z,47.27
2023-06-07T21:03:32.085Z,47.48
2023-06-07T21:05:35.171Z,47.40
2023-06-07T21:07:37.824Z,47.61
2023-06-07T21:09:40.699Z,47.53
2023-06-07T21:11:43.331Z,47.44
2023-06-07T21:13:47.368Z,47.23
2023-06-07T21:15:50.253Z,47.21
2023-06-07T21:17:52.933Z,46.97
2023-06-07T21:19:56.096Z,47.09
2023-06-07T21:21:58.711Z,46.95
2023-06-07T21:24:01.376Z,47.21
2023-06-07T21:26:03.998Z,47.02
2023-06-07T21:28:06.976Z,47.25
2023-06-07T21:30:11.528Z,47.13
2023-06-07T21:32:14.164Z,46.65
2023-06-07T21:34:16.803Z,46.36
2023-06-07T21:36:19.421Z,47.23
2023-06-07T21:38:22.036Z,48.01
2023-06-07T21:40:24.705Z,48.50
2023-06-07T21:42:27.313Z,48.64
2023-06-07T21:44:29.946Z,48.63
2023-06-07T21:46:34.088Z,48.67
2023-06-07T21:48:37.793Z,48.27
2023-06-07T21:50:40.499Z,48.36
2023-06-07T21:52:43.124Z,48.40
2023-06-07T21:54:47.887Z,48.11
2023-06-07T21:56:50.578Z,48.10
2023-06-07T21:58:53.169Z,48.38
2023-06-07T22:00:55.859Z,48.59
2023-06-07T22:03:00.132Z,48.93
2023-06-07T22:05:02.783Z,48.62
2023-06-07T22:07:05.646Z,48.39
2023-06-07T22:09:08.266Z,48.34
2023-06-07T22:11:10.866Z,48.14
2023-06-07T22:13:17.816Z,48.30
2023-06-07T22:15:21.152Z,48.32
2023-06-07T22:17:23.917Z,48.31
2023-06-07T22:19:28.114Z,48.13
2023-06-07T22:21:31.417Z,47.84
2023-06-07T22:23:34.602Z,48.20
2023-06-07T22:25:41.623Z,48.47
2023-06-07T22:27:46.431Z,48.65
2023-06-07T22:29:49.289Z,48.73
2023-06-07T22:31:51.936Z,48.57
2023-06-07T22:33:54.613Z,48.72
2023-06-07T22:35:58.787Z,48.79
2023-06-07T22:38:06.104Z,48.80
2023-06-07T22:40:10.595Z,48.78
2023-06-07T22:42:13.541Z,48.86
2023-06-07T22:44:16.589Z,48.78
2023-06-07T22:46:19.182Z,49.06
2023-06-07T22:48:21.883Z,49.16
2023-06-07T22:50:27.148Z,49.57
2023-06-07T22:52:34.295Z,49.71
2023-06-07T22:54:36.952Z,50.01
2023-06-07T22:56:39.569Z,50.24
2023-06-07T22:58:42.219Z,50.20
2023-06-07T23:00:44.809Z,50.32
2023-06-07T23:02:48.969Z,50.45
2023-06-07T23:04:53.279Z,50.29
2023-06-07T23:06:59.139Z,50.49
2023-06-07T23:09:03.689Z,50.75
2023-06-07T23:11:06.695Z,50.89
2023-06-07T23:13:10.929Z,50.84
2023-06-07T23:15:14.452Z,51.21
2023-06-07T23:17:17.752Z,51.09
2023-06-07T23:19:20.944Z,50.98
2023-06-07T23:21:26.447Z,51.01
2023-06-07T23:23:30.529Z,51.21
2023-06-07T23:25:34.602Z,50.71
2023-06-07T23:27:37.233Z,50.56
2023-06-07T23:29:39.873Z,50.37
2023-06-07T23:31:42.674Z,49.75
2023-06-07T23:33:45.433Z,49.60
2023-06-07T23:35:48.106Z,49.20
2023-06-07T23:37:50.798Z,48.77
2023-06-07T23:39:53.458Z,48.37
2023-06-07T23:41:57.393Z,48.86
2023-06-07T23:44:00.182Z,49.69
2023-06-07T23:46:03.024Z,50.02
2023-06-07T23:48:07.721Z,50.28
2023-06-07T23:50:11.288Z,50.79
2023-06-07T23:52:13.983Z,50.87
2023-06-07T23:54:16.635Z,50.57
2023-06-07T23:56:19.388Z,50.74
2023-06-07T23:58:23.374Z,50.12
